createdAt,value
2019-05-22T00:02:01.043Z,12.60
2019-05-22T00:04:31.968Z,12.30
2019-05-22T00:07:11.276Z,15.30
2019-05-22T00:09:54.687Z,12.40
2019-05-22T00:12:46.034Z,12.40
2019-05-22T00:15:10.473Z,12.40
2019-05-22T00:22:10.010Z,12.40
2019-05-22T00:25:26.496Z,12.30
2019-05-22T00:28:24.315Z,12.20
2019-05-22T00:31:02.687Z,12.20
2019-05-22T00:33:57.479Z,12.20
2019-05-22T00:36:45.911Z,12.10
2019-05-22T00:39:26.289Z,10.70
2019-05-22T00:42:11.025Z,12.00
2019-05-22T00:44:44.542Z,12.00
2019-05-22T00:47:23.254Z,12.10
2019-05-22T00:50:11.481Z,12.10
2019-05-22T00:53:01.707Z,14.60
2019-05-22T00:56:00.694Z,11.90
2019-05-22T00:58:53.129Z,11.90
2019-05-22T01:01:49.437Z,11.80
2019-05-22T01:04:38.933Z,10.70
2019-05-22T01:07:20.823Z,11.80
2019-05-22T01:09:58.308Z,11.80
2019-05-22T01:13:05.413Z,11.60
2019-05-22T01:15:47.654Z,12.20
2019-05-22T01:18:31.058Z,11.40
2019-05-22T01:24:12.502Z,11.50
2019-05-22T01:27:11.135Z,11.30
2019-05-22T01:29:53.971Z,11.50
2019-05-22T01:32:51.411Z,11.40
2019-05-22T01:40:14.824Z,11.30
2019-05-22T01:46:37.705Z,11.40
2019-05-22T01:49:31.955Z,11.40
2019-05-22T01:52:24.158Z,11.40
2019-05-22T01:54:57.867Z,11.40
2019-05-22T01:57:37.228Z,11.40
2019-05-22T02:00:32.124Z,11.50
2019-05-22T02:03:10.984Z,11.50
2019-05-22T02:06:08.855Z,12.50
2019-05-22T02:11:53.851Z,11.70
2019-05-22T02:14:32.961Z,11.70
2019-05-22T02:17:31.860Z,11.70
2019-05-22T02:20:17.689Z,11.70
2019-05-22T02:23:06.626Z,11.70
2019-05-22T02:25:58.040Z,11.70
2019-05-22T02:28:30.325Z,11.70
2019-05-22T05:22:05.346Z,13.30
2019-05-22T05:26:15.726Z,13.20
2019-05-22T05:29:33.053Z,13.60
2019-05-22T05:32:51.467Z,13.90
2019-05-22T05:35:12.376Z,13.90
2019-05-22T05:37:46.731Z,13.70
2019-05-22T05:40:33.693Z,13.80
2019-05-22T05:43:43.869Z,13.70
2019-05-22T05:46:43.128Z,14.10
2019-05-22T05:49:17.775Z,14.10
2019-05-22T05:51:46.095Z,14.50
2019-05-22T05:54:18.666Z,14.80
2019-05-22T05:56:49.292Z,15.10
2019-05-22T05:59:19.901Z,15.10
2019-05-22T06:01:58.029Z,15.30
2019-05-22T06:04:35.135Z,15.30
2019-05-22T06:07:22.823Z,15.50
2019-05-22T06:10:22.989Z,15.90
2019-05-22T06:12:52.999Z,15.90
2019-05-22T06:15:24.923Z,16.20
2019-05-22T06:18:31.213Z,16.30
2019-05-22T06:21:04.005Z,16.40
2019-05-22T06:24:22.887Z,16.20
2019-05-22T06:26:57.351Z,16.20
2019-05-22T06:29:29.862Z,16.10
2019-05-22T06:32:42.559Z,16.50
2019-05-22T06:35:11.663Z,16.60
2019-05-22T06:37:55.003Z,16.60
2019-05-22T06:43:29.456Z,17.20
2019-05-22T06:45:57.390Z,17.40
2019-05-22T06:48:26.213Z,17.50
2019-05-22T06:50:54.090Z,17.60
2019-05-22T06:53:22.766Z,17.70
2019-05-22T06:55:50.933Z,17.60
2019-05-22T06:58:19.033Z,17.90
2019-05-22T07:00:47.486Z,17.80
2019-05-22T07:03:15.568Z,18.10
2019-05-22T07:05:45.304Z,18.20
2019-05-22T07:08:13.276Z,18.30
2019-05-22T07:10:42.689Z,18.20
2019-05-22T07:13:11.384Z,18.50
2019-05-22T07:15:48.080Z,18.80
2019-05-22T07:18:19.646Z,19.30
2019-05-22T07:20:49.766Z,19.60
2019-05-22T07:23:23.097Z,18.20
2019-05-22T07:25:51.879Z,20.60
2019-05-22T07:28:19.805Z,20.90
2019-05-22T07:30:48.342Z,20.50
2019-05-22T07:33:18.215Z,20.40
2019-05-22T07:36:07.563Z,20.50
2019-05-22T07:38:18.970Z,20.40
2019-05-22T07:40:50.595Z,20.40
2019-05-22T07:43:21.177Z,20.70
2019-05-22T07:45:50.987Z,20.70
2019-05-22T07:48:19.664Z,20.80
2019-05-22T07:50:49.488Z,21.10
2019-05-22T07:53:20.162Z,21.10
2019-05-22T07:56:01.410Z,21.40
2019-05-22T07:58:35.576Z,21.30
2019-05-22T08:01:11.740Z,21.10
2019-05-22T08:04:19.127Z,21.40
2019-05-22T08:06:53.622Z,21.40
2019-05-22T08:09:23.550Z,21.20
2019-05-22T08:11:53.036Z,21.50
2019-05-22T08:14:24.739Z,21.90
2019-05-22T08:16:56.733Z,22.20
2019-05-22T08:19:26.885Z,22.10
2019-05-22T08:22:06.720Z,21.40
2019-05-22T08:24:25.936Z,21.00
2019-05-22T08:27:00.145Z,20.80
2019-05-22T08:29:28.606Z,22.00
2019-05-22T08:31:58.536Z,21.90
2019-05-22T08:34:26.647Z,21.80
2019-05-22T08:36:55.408Z,22.40
2019-05-22T08:39:24.139Z,23.00
2019-05-22T08:41:55.327Z,22.90
2019-05-22T08:44:25.179Z,22.40
2019-05-22T08:46:53.182Z,22.10
2019-05-22T08:49:21.660Z,22.00
2019-05-22T08:51:49.903Z,22.30
2019-05-22T08:54:19.044Z,22.50
2019-05-22T08:56:53.022Z,22.50
2019-05-22T08:59:21.635Z,22.80
2019-05-22T09:01:52.921Z,22.50
2019-05-22T09:04:21.555Z,22.60
2019-05-22T09:06:51.618Z,22.80
2019-05-22T09:09:21.360Z,22.90
2019-05-22T09:11:51.117Z,22.90
2019-05-22T09:14:25.222Z,22.90
2019-05-22T09:16:56.336Z,22.70
2019-05-22T09:19:30.446Z,22.60
2019-05-22T09:22:01.628Z,22.40
2019-05-22T09:24:38.869Z,22.30
2019-05-22T09:27:12.099Z,22.20
2019-05-22T09:29:40.351Z,22.30
2019-05-22T09:32:10.562Z,22.20
2019-05-22T09:34:41.701Z,22.40
2019-05-22T09:37:10.043Z,22.20
2019-05-22T09:39:38.342Z,21.90
2019-05-22T09:42:06.815Z,21.80
2019-05-22T09:44:35.395Z,21.80
2019-05-22T09:47:08.009Z,21.60
2019-05-22T09:49:40.282Z,21.50
2019-05-22T09:52:11.916Z,21.60
2019-05-22T09:54:40.648Z,21.70
2019-05-22T09:57:15.037Z,21.70
2019-05-22T09:59:43.069Z,21.80
2019-05-22T10:02:13.946Z,21.70
2019-05-22T10:07:11.985Z,21.90
2019-05-22T10:09:40.226Z,22.00
2019-05-22T10:12:13.668Z,21.80
2019-05-22T10:14:43.136Z,22.10
2019-05-22T10:17:11.415Z,22.40
2019-05-22T10:19:39.362Z,22.50
2019-05-22T10:22:07.964Z,22.30
2019-05-22T10:24:36.345Z,22.20
2019-05-22T10:27:04.927Z,22.90
2019-05-22T10:29:33.164Z,23.00
2019-05-22T10:32:00.898Z,22.90
2019-05-22T10:34:31.617Z,22.90
2019-05-22T10:36:59.405Z,22.70
2019-05-22T10:39:31.635Z,22.90
2019-05-22T10:41:59.175Z,23.10
2019-05-22T10:44:26.885Z,23.10
2019-05-22T10:46:55.791Z,23.10
2019-05-22T10:49:23.569Z,23.40
2019-05-22T10:51:51.507Z,23.10
2019-05-22T10:54:19.250Z,23.10
2019-05-22T10:56:46.907Z,23.30
2019-05-22T10:59:14.934Z,23.70
2019-05-22T11:01:42.909Z,23.70
2019-05-22T11:04:11.173Z,23.60
2019-05-22T11:06:39.537Z,23.40
2019-05-22T11:09:09.513Z,23.20
2019-05-22T11:11:38.519Z,23.20
2019-05-22T11:14:09.449Z,23.40
2019-05-22T11:16:37.056Z,23.50
2019-05-22T11:19:05.341Z,23.50
2019-05-22T11:21:32.987Z,23.50
2019-05-22T11:24:00.820Z,23.20
2019-05-22T11:26:28.603Z,23.10
2019-05-22T11:28:56.492Z,23.40
2019-05-22T11:31:24.627Z,23.70
2019-05-22T11:33:58.245Z,23.90
2019-05-22T11:36:26.104Z,23.80
2019-05-22T11:38:54.096Z,23.70
2019-05-22T11:41:23.052Z,23.10
2019-05-22T11:43:51.134Z,22.90
2019-05-22T11:46:19.187Z,22.50
2019-05-22T11:48:47.350Z,22.50
2019-05-22T11:51:15.046Z,23.00
2019-05-22T11:53:42.730Z,23.10
2019-05-22T11:56:10.670Z,23.30
2019-05-22T11:58:41.822Z,23.10
2019-05-22T12:01:09.567Z,23.40
2019-05-22T12:03:37.551Z,23.10
2019-05-22T12:06:07.128Z,23.50
2019-05-22T12:08:35.195Z,23.80
2019-05-22T12:11:03.375Z,24.00
2019-05-22T12:13:32.140Z,24.10
2019-05-22T12:16:03.667Z,24.60
2019-05-22T12:18:31.654Z,24.80
2019-05-22T12:21:01.656Z,24.80
2019-05-22T12:23:31.073Z,24.20
2019-05-22T12:26:02.151Z,23.80
2019-05-22T12:28:29.798Z,23.50
2019-05-22T12:30:58.276Z,23.50
2019-05-22T12:33:26.262Z,23.40
2019-05-22T12:35:54.179Z,23.40
2019-05-22T12:38:29.592Z,23.30
2019-05-22T12:40:57.568Z,23.50
2019-05-22T12:43:27.900Z,23.90
2019-05-22T12:45:55.621Z,23.70
2019-05-22T12:48:23.658Z,23.70
2019-05-22T12:50:54.488Z,23.60
2019-05-22T12:53:23.073Z,23.60
2019-05-22T12:55:50.755Z,23.60
2019-05-22T12:58:19.533Z,23.50
2019-05-22T13:00:47.246Z,23.30
2019-05-22T13:03:15.458Z,23.10
2019-05-22T13:05:43.320Z,23.10
2019-05-22T13:08:13.125Z,22.80
2019-05-22T13:10:40.938Z,22.70
2019-05-22T13:13:08.865Z,22.70
2019-05-22T13:15:38.635Z,22.70
2019-05-22T13:18:07.646Z,22.60
2019-05-22T13:20:42.416Z,22.90
2019-05-22T13:23:08.780Z,22.80
2019-05-22T13:25:39.081Z,22.90
2019-05-22T13:28:12.931Z,22.70
2019-05-22T13:30:42.042Z,22.80
2019-05-22T13:33:15.389Z,22.70
2019-05-22T13:35:43.895Z,22.30
2019-05-22T13:38:12.254Z,22.70
2019-05-22T13:40:40.342Z,22.80
2019-05-22T13:43:09.643Z,22.90
2019-05-22T13:45:38.265Z,22.90
2019-05-22T13:48:06.649Z,22.90
2019-05-22T13:50:34.425Z,22.30
2019-05-22T13:53:04.118Z,22.30
2019-05-22T13:55:32.355Z,22.30
2019-05-22T13:58:00.595Z,22.40
2019-05-22T14:00:28.597Z,22.30
2019-05-22T14:02:56.539Z,22.40
2019-05-22T14:05:25.669Z,22.00
2019-05-22T14:07:53.391Z,21.90
2019-05-22T14:10:23.481Z,22.10
2019-05-22T14:12:51.520Z,22.00
2019-05-22T14:15:19.406Z,22.00
2019-05-22T14:17:47.151Z,22.00
2019-05-22T14:20:15.826Z,22.00
2019-05-22T14:22:43.565Z,21.90
2019-05-22T14:25:28.631Z,21.80
2019-05-22T14:27:56.429Z,21.80
2019-05-22T14:30:26.190Z,21.80
2019-05-22T14:32:54.415Z,22.00
2019-05-22T14:35:25.420Z,21.60
2019-05-22T14:37:53.534Z,21.60
2019-05-22T14:40:22.909Z,21.90
2019-05-22T14:42:50.715Z,21.90
2019-05-22T14:45:18.613Z,22.00
2019-05-22T14:48:20.847Z,22.00
2019-05-22T14:50:45.536Z,22.10
2019-05-22T14:53:18.710Z,22.00
2019-05-22T14:55:48.152Z,22.10
2019-05-22T14:58:26.987Z,22.10
2019-05-22T15:01:15.246Z,22.40
2019-05-22T15:03:46.192Z,22.30
2019-05-22T15:06:15.683Z,22.20
2019-05-22T15:08:47.630Z,22.10
2019-05-22T15:11:15.674Z,22.10
2019-05-22T15:13:43.754Z,22.30
2019-05-22T15:16:22.030Z,22.10
2019-05-22T15:18:49.912Z,22.20
2019-05-22T15:21:17.727Z,22.20
2019-05-22T15:23:46.267Z,22.10
2019-05-22T15:26:14.342Z,22.30
2019-05-22T15:28:42.261Z,22.10
2019-05-22T15:31:20.806Z,22.30
2019-05-22T15:35:23.144Z,22.50
2019-05-22T16:05:20.518Z,20.60
2019-05-22T16:07:51.662Z,20.50
2019-05-22T16:10:21.999Z,20.60
2019-05-22T16:12:53.959Z,20.50
2019-05-22T16:15:23.418Z,20.80
2019-05-22T16:18:10.392Z,21.10
2019-05-22T16:20:25.619Z,21.20
2019-05-22T16:22:55.319Z,21.10
2019-05-22T16:25:26.941Z,21.10
2019-05-22T16:28:20.508Z,21.20
2019-05-22T16:30:48.859Z,21.30
2019-05-22T16:33:18.036Z,21.70
2019-05-22T16:35:48.804Z,21.60
2019-05-22T16:38:17.792Z,21.80
2019-05-22T16:40:46.266Z,22.60
2019-05-22T16:43:14.200Z,22.50
2019-05-22T16:45:50.209Z,22.80
2019-05-22T16:48:28.515Z,22.60
2019-05-22T16:50:48.053Z,22.70
2019-05-22T16:53:21.382Z,22.30
2019-05-22T16:55:49.077Z,21.80
2019-05-22T16:58:28.338Z,21.20
2019-05-22T17:02:11.095Z,21.20
2019-05-22T17:03:58.021Z,21.00
2019-05-22T17:06:28.203Z,21.10
2019-05-22T17:08:57.279Z,21.10
2019-05-22T17:11:25.777Z,20.80
2019-05-22T17:13:55.191Z,20.50
2019-05-22T17:16:23.677Z,20.10
2019-05-22T17:18:51.849Z,19.80
2019-05-22T17:21:20.572Z,19.70
2019-05-22T17:23:50.089Z,19.50
2019-05-22T17:26:18.238Z,19.50
2019-05-22T17:28:50.030Z,19.40
2019-05-22T17:31:23.641Z,19.50
2019-05-22T17:33:54.291Z,19.40
2019-05-22T17:36:23.457Z,19.30
2019-05-22T17:38:52.332Z,19.30
2019-05-22T17:41:23.130Z,19.50
2019-05-22T17:43:52.205Z,19.30
2019-05-22T17:46:20.349Z,19.40
2019-05-22T17:48:49.992Z,19.30
2019-05-22T17:51:19.295Z,19.20
2019-05-22T17:53:47.129Z,18.90
2019-05-22T17:56:15.133Z,18.70
2019-05-22T17:58:43.652Z,18.70
2019-05-22T18:01:11.840Z,18.50
2019-05-22T18:03:39.862Z,18.40
2019-05-22T18:06:10.806Z,18.40
2019-05-22T18:08:38.693Z,18.20
2019-05-22T18:11:07.731Z,18.10
2019-05-22T18:13:44.113Z,17.90
2019-05-22T18:16:12.357Z,17.80
2019-05-22T18:18:40.190Z,17.70
2019-05-22T18:21:10.550Z,17.60
2019-05-22T18:23:37.994Z,17.50
2019-05-22T18:26:06.552Z,17.50
2019-05-22T18:28:34.383Z,17.30
2019-05-22T18:31:02.009Z,17.20
2019-05-22T18:33:29.643Z,17.20
2019-05-22T18:35:57.201Z,17.10
2019-05-22T18:38:27.265Z,17.00
2019-05-22T18:47:28.071Z,16.30
2019-05-22T18:50:48.953Z,15.40
2019-05-22T18:53:17.660Z,16.50
2019-05-22T18:56:47.805Z,16.20
2019-05-22T18:59:15.799Z,16.20
2019-05-22T19:01:43.644Z,16.00
2019-05-22T19:04:19.139Z,16.10
2019-05-22T19:06:47.264Z,16.00
2019-05-22T19:09:15.588Z,16.00
2019-05-22T19:11:49.217Z,16.00
2019-05-22T19:14:45.286Z,15.90
2019-05-22T19:18:02.122Z,18.40
2019-05-22T19:20:29.936Z,15.70
2019-05-22T19:23:00.990Z,13.40
2019-05-22T19:25:27.573Z,15.80
2019-05-22T19:31:14.053Z,15.70
2019-05-22T19:33:42.105Z,15.50
2019-05-22T19:36:09.856Z,15.60
2019-05-22T19:38:39.724Z,15.60
2019-05-22T19:41:15.906Z,15.60
2019-05-22T19:43:51.973Z,15.60
2019-05-22T19:46:20.859Z,15.50
2019-05-22T19:48:56.066Z,15.40
2019-05-22T19:51:24.472Z,15.50
2019-05-22T19:55:09.006Z,15.40
2019-05-22T19:57:41.181Z,14.10
2019-05-22T20:00:21.753Z,15.50
2019-05-22T20:02:55.571Z,15.40
2019-05-22T20:05:29.056Z,15.30
2019-05-22T20:08:00.009Z,15.20
2019-05-22T20:10:32.034Z,15.30
2019-05-22T20:13:00.365Z,16.20
2019-05-22T20:15:28.573Z,15.40
2019-05-22T20:17:57.694Z,15.00
2019-05-22T20:20:30.547Z,15.00
2019-05-22T20:22:58.956Z,14.90
2019-05-22T20:25:28.214Z,15.00
2019-05-22T20:28:20.956Z,14.90
2019-05-22T20:30:59.471Z,14.80
2019-05-22T20:34:09.392Z,14.80
2019-05-22T20:36:28.158Z,14.70
2019-05-22T20:39:06.499Z,14.60
2019-05-22T20:41:34.937Z,14.40
2019-05-22T20:44:03.994Z,14.30
2019-05-22T20:46:32.082Z,14.40
2019-05-22T21:02:42.819Z,14.20
2019-05-22T21:45:58.379Z,11.90
2019-05-22T21:48:36.868Z,11.80
2019-05-22T21:51:26.321Z,11.80
2019-05-22T21:53:54.361Z,11.60
2019-05-22T21:56:23.376Z,11.60
2019-05-22T21:58:52.134Z,11.50
2019-05-22T22:01:31.717Z,11.50
2019-05-22T22:04:34.468Z,11.40
2019-05-22T22:07:05.346Z,11.40
2019-05-22T22:09:33.302Z,11.30
2019-05-22T22:12:01.736Z,11.20
2019-05-22T22:14:30.777Z,11.30
2019-05-22T22:17:00.233Z,11.20
2019-05-22T22:19:32.863Z,11.20
2019-05-22T22:22:01.340Z,11.40
2019-05-22T22:24:29.419Z,11.30
2019-05-22T22:26:57.881Z,11.40
2019-05-22T22:29:29.628Z,11.60
2019-05-22T22:31:58.485Z,11.50
2019-05-22T22:34:45.899Z,11.50
2019-05-22T22:37:14.021Z,11.60
2019-05-22T22:39:47.139Z,11.60
2019-05-22T22:42:20.740Z,11.50
2019-05-22T22:44:51.952Z,11.50
2019-05-22T22:47:25.494Z,11.40
2019-05-22T22:49:54.829Z,11.30
2019-05-22T22:52:27.195Z,11.20
2019-05-22T22:54:56.251Z,11.20
2019-05-22T22:57:24.596Z,11.10
2019-05-22T22:59:52.372Z,10.70
2019-05-22T23:02:25.222Z,11.10
2019-05-22T23:04:54.808Z,11.30
2019-05-22T23:07:26.351Z,11.20
2019-05-22T23:09:54.421Z,11.40
2019-05-22T23:12:22.232Z,11.40
2019-05-22T23:14:54.441Z,11.40
2019-05-22T23:19:49.199Z,11.30
2019-05-22T23:22:28.342Z,11.20
2019-05-22T23:24:57.384Z,11.30
2019-05-22T23:27:26.768Z,11.30
2019-05-22T23:29:55.595Z,11.60
2019-05-22T23:32:23.486Z,11.30
2019-05-22T23:34:51.680Z,11.30
2019-05-22T23:37:21.867Z,11.30
2019-05-22T23:39:52.472Z,11.30
2019-05-22T23:42:28.113Z,11.20
2019-05-22T23:45:03.083Z,11.30
2019-05-22T23:47:32.224Z,11.30
2019-05-22T23:50:01.115Z,11.40
2019-05-22T23:52:29.385Z,11.30
2019-05-22T23:54:57.258Z,11.40
2019-05-22T23:57:27.649Z,11.30
